sensor_id;sensor_type;location;lat;lon;timestamp;P1;durP1;ratioP1;P2;durP2;ratioP2
54555;SDS011;57291;37.520;15.106;2022-07-29T00:01:07;20.23;;;10.45;;
54555;SDS011;57291;37.520;15.106;2022-07-29T00:03:45;22.20;;;10.73;;
54555;SDS011;57291;37.520;15.106;2022-07-29T00:06:12;23.40;;;11.15;;
54555;SDS011;57291;37.520;15.106;2022-07-29T00:08:40;23.02;;;11.68;;
54555;SDS011;57291;37.520;15.106;2022-07-29T00:11:07;29.00;;;10.75;;
54555;SDS011;57291;37.520;15.106;2022-07-29T00:13:36;19.90;;;10.70;;
54555;SDS011;57291;37.520;15.106;2022-07-29T00:16:03;17.42;;;11.02;;
54555;SDS011;57291;37.520;15.106;2022-07-29T00:18:31;22.35;;;11.02;;
54555;SDS011;57291;37.520;15.106;2022-07-29T00:20:58;24.65;;;10.88;;
54555;SDS011;57291;37.520;15.106;2022-07-29T00:23:26;23.50;;;11.13;;
54555;SDS011;57291;37.520;15.106;2022-07-29T00:25:53;19.65;;;11.65;;
54555;SDS011;57291;37.520;15.106;2022-07-29T00:28:20;23.23;;;11.48;;
54555;SDS011;57291;37.520;15.106;2022-07-29T00:30:47;17.52;;;10.82;;
54555;SDS011;57291;37.520;15.106;2022-07-29T00:33:14;17.33;;;10.73;;
54555;SDS011;57291;37.520;15.106;2022-07-29T00:35:41;22.02;;;11.05;;
54555;SDS011;57291;37.520;15.106;2022-07-29T00:38:12;21.42;;;11.75;;
54555;SDS011;57291;37.520;15.106;2022-07-29T00:40:44;16.50;;;10.93;;
54555;SDS011;57291;37.520;15.106;2022-07-29T00:43:12;23.33;;;10.88;;
54555;SDS011;57291;37.520;15.106;2022-07-29T00:45:41;20.35;;;10.73;;
54555;SDS011;57291;37.520;15.106;2022-07-29T00:48:09;22.52;;;10.98;;
54555;SDS011;57291;37.520;15.106;2022-07-29T00:50:37;18.83;;;10.80;;
54555;SDS011;57291;37.520;15.106;2022-07-29T00:53:05;17.70;;;11.00;;
54555;SDS011;57291;37.520;15.106;2022-07-29T00:55:34;24.33;;;11.60;;
54555;SDS011;57291;37.520;15.106;2022-07-29T00:58:02;20.90;;;11.15;;
54555;SDS011;57291;37.520;15.106;2022-07-29T01:00:29;18.63;;;10.82;;
54555;SDS011;57291;37.520;15.106;2022-07-29T01:02:57;17.75;;;9.90;;
54555;SDS011;57291;37.520;15.106;2022-07-29T01:05:25;19.02;;;10.60;;
54555;SDS011;57291;37.520;15.106;2022-07-29T01:08:14;16.67;;;9.98;;
54555;SDS011;57291;37.520;15.106;2022-07-29T01:10:43;14.93;;;9.75;;
54555;SDS011;57291;37.520;15.106;2022-07-29T01:13:11;17.67;;;10.43;;
54555;SDS011;57291;37.520;15.106;2022-07-29T01:15:44;20.15;;;10.20;;
54555;SDS011;57291;37.520;15.106;2022-07-29T01:18:21;16.08;;;9.88;;
54555;SDS011;57291;37.520;15.106;2022-07-29T01:26:29;19.85;;;10.02;;
54555;SDS011;57291;37.520;15.106;2022-07-29T01:34:25;12.63;;;8.88;;
54555;SDS011;57291;37.520;15.106;2022-07-29T01:37:19;14.52;;;9.07;;
54555;SDS011;57291;37.520;15.106;2022-07-29T01:39:47;14.13;;;9.18;;
54555;SDS011;57291;37.520;15.106;2022-07-29T01:42:34;13.52;;;7.95;;
54555;SDS011;57291;37.520;15.106;2022-07-29T01:45:15;12.45;;;8.52;;
54555;SDS011;57291;37.520;15.106;2022-07-29T01:47:50;12.77;;;8.93;;
54555;SDS011;57291;37.520;15.106;2022-07-29T01:50:34;15.05;;;8.88;;
54555;SDS011;57291;37.520;15.106;2022-07-29T01:53:05;11.52;;;8.65;;
54555;SDS011;57291;37.520;15.106;2022-07-29T01:55:39;12.52;;;8.50;;
54555;SDS011;57291;37.520;15.106;2022-07-29T01:58:11;16.30;;;8.82;;
54555;SDS011;57291;37.520;15.106;2022-07-29T02:00:40;18.05;;;9.60;;
54555;SDS011;57291;37.520;15.106;2022-07-29T02:03:11;13.18;;;9.38;;
54555;SDS011;57291;37.520;15.106;2022-07-29T02:05:40;17.08;;;9.85;;
54555;SDS011;57291;37.520;15.106;2022-07-29T02:08:09;14.48;;;9.27;;
54555;SDS011;57291;37.520;15.106;2022-07-29T02:10:37;15.65;;;9.15;;
54555;SDS011;57291;37.520;15.106;2022-07-29T02:13:07;11.65;;;9.18;;
54555;SDS011;57291;37.520;15.106;2022-07-29T02:15:38;14.13;;;8.57;;
54555;SDS011;57291;37.520;15.106;2022-07-29T02:18:09;13.55;;;8.77;;
54555;SDS011;57291;37.520;15.106;2022-07-29T02:23:11;10.52;;;9.10;;
54555;SDS011;57291;37.520;15.106;2022-07-29T02:25:41;14.07;;;8.80;;
54555;SDS011;57291;37.520;15.106;2022-07-29T02:28:10;11.50;;;8.73;;
54555;SDS011;57291;37.520;15.106;2022-07-29T02:30:40;10.98;;;8.75;;
54555;SDS011;57291;37.520;15.106;2022-07-29T02:33:12;11.70;;;8.52;;
54555;SDS011;57291;37.520;15.106;2022-07-29T02:35:45;20.10;;;9.37;;
54555;SDS011;57291;37.520;15.106;2022-07-29T02:38:17;13.25;;;9.05;;
54555;SDS011;57291;37.520;15.106;2022-07-29T02:41:04;13.52;;;9.07;;
54555;SDS011;57291;37.520;15.106;2022-07-29T02:43:38;14.93;;;8.77;;
54555;SDS011;57291;37.520;15.106;2022-07-29T02:46:08;13.50;;;8.98;;
54555;SDS011;57291;37.520;15.106;2022-07-29T02:48:59;13.80;;;8.68;;
54555;SDS011;57291;37.520;15.106;2022-07-29T02:51:51;11.73;;;8.32;;
54555;SDS011;57291;37.520;15.106;2022-07-29T02:54:33;13.38;;;8.65;;
54555;SDS011;57291;37.520;15.106;2022-07-29T02:57:14;12.27;;;8.57;;
54555;SDS011;57291;37.520;15.106;2022-07-29T02:59:57;11.88;;;7.88;;
54555;SDS011;57291;37.520;15.106;2022-07-29T03:02:27;11.20;;;8.32;;
54555;SDS011;57291;37.520;15.106;2022-07-29T03:04:57;13.50;;;8.70;;
54555;SDS011;57291;37.520;15.106;2022-07-29T03:07:26;10.45;;;8.25;;
54555;SDS011;57291;37.520;15.106;2022-07-29T03:09:54;9.93;;;8.07;;
54555;SDS011;57291;37.520;15.106;2022-07-29T03:12:22;10.30;;;8.30;;
54555;SDS011;57291;37.520;15.106;2022-07-29T03:14:50;14.23;;;8.68;;
54555;SDS011;57291;37.520;15.106;2022-07-29T03:17:19;12.65;;;8.40;;
54555;SDS011;57291;37.520;15.106;2022-07-29T03:19:47;11.23;;;8.70;;
54555;SDS011;57291;37.520;15.106;2022-07-29T03:22:15;11.65;;;8.38;;
54555;SDS011;57291;37.520;15.106;2022-07-29T03:24:44;14.57;;;7.90;;
54555;SDS011;57291;37.520;15.106;2022-07-29T03:27:12;12.23;;;8.70;;
54555;SDS011;57291;37.520;15.106;2022-07-29T03:29:40;13.23;;;8.60;;
54555;SDS011;57291;37.520;15.106;2022-07-29T03:32:15;13.07;;;8.32;;
54555;SDS011;57291;37.520;15.106;2022-07-29T03:34:49;13.75;;;8.70;;
54555;SDS011;57291;37.520;15.106;2022-07-29T03:37:16;12.75;;;8.57;;
54555;SDS011;57291;37.520;15.106;2022-07-29T03:39:43;10.50;;;8.60;;
54555;SDS011;57291;37.520;15.106;2022-07-29T03:42:14;13.57;;;9.30;;
54555;SDS011;57291;37.520;15.106;2022-07-29T03:44:44;13.25;;;9.02;;
54555;SDS011;57291;37.520;15.106;2022-07-29T03:47:14;11.90;;;9.45;;
54555;SDS011;57291;37.520;15.106;2022-07-29T03:49:46;12.85;;;8.80;;
54555;SDS011;57291;37.520;15.106;2022-07-29T03:52:17;12.15;;;9.00;;
54555;SDS011;57291;37.520;15.106;2022-07-29T03:54:44;12.25;;;9.25;;
54555;SDS011;57291;37.520;15.106;2022-07-29T03:57:12;11.68;;;9.32;;
54555;SDS011;57291;37.520;15.106;2022-07-29T03:59:41;14.32;;;8.48;;
54555;SDS011;57291;37.520;15.106;2022-07-29T04:02:10;10.68;;;8.02;;
54555;SDS011;57291;37.520;15.106;2022-07-29T04:07:13;11.50;;;8.65;;
54555;SDS011;57291;37.520;15.106;2022-07-29T04:09:41;12.35;;;8.27;;
54555;SDS011;57291;37.520;15.106;2022-07-29T04:12:09;10.77;;;8.52;;
54555;SDS011;57291;37.520;15.106;2022-07-29T04:14:36;16.23;;;8.85;;
54555;SDS011;57291;37.520;15.106;2022-07-29T04:17:03;13.27;;;8.32;;
54555;SDS011;57291;37.520;15.106;2022-07-29T04:19:32;12.00;;;7.88;;
54555;SDS011;57291;37.520;15.106;2022-07-29T04:21:59;11.63;;;7.93;;
54555;SDS011;57291;37.520;15.106;2022-07-29T04:24:27;11.02;;;7.82;;
54555;SDS011;57291;37.520;15.106;2022-07-29T04:26:54;13.32;;;8.23;;
54555;SDS011;57291;37.520;15.106;2022-07-29T04:29:22;14.18;;;8.75;;
54555;SDS011;57291;37.520;15.106;2022-07-29T04:31:49;13.80;;;8.15;;
54555;SDS011;57291;37.520;15.106;2022-07-29T04:34:16;12.20;;;8.20;;
54555;SDS011;57291;37.520;15.106;2022-07-29T04:36:44;14.95;;;8.38;;
54555;SDS011;57291;37.520;15.106;2022-07-29T04:39:12;14.77;;;9.30;;
54555;SDS011;57291;37.520;15.106;2022-07-29T04:44:11;18.83;;;10.00;;
54555;SDS011;57291;37.520;15.106;2022-07-29T04:46:39;16.40;;;10.10;;
54555;SDS011;57291;37.520;15.106;2022-07-29T04:49:07;17.25;;;9.80;;
54555;SDS011;57291;37.520;15.106;2022-07-29T04:51:35;15.40;;;10.00;;
54555;SDS011;57291;37.520;15.106;2022-07-29T04:54:02;15.68;;;9.57;;
54555;SDS011;57291;37.520;15.106;2022-07-29T04:56:29;13.07;;;9.95;;
54555;SDS011;57291;37.520;15.106;2022-07-29T04:58:56;16.45;;;9.90;;
54555;SDS011;57291;37.520;15.106;2022-07-29T05:01:24;15.57;;;10.00;;
54555;SDS011;57291;37.520;15.106;2022-07-29T05:03:51;11.95;;;9.10;;
54555;SDS011;57291;37.520;15.106;2022-07-29T05:06:25;15.50;;;9.00;;
54555;SDS011;57291;37.520;15.106;2022-07-29T05:08:52;18.17;;;9.63;;
54555;SDS011;57291;37.520;15.106;2022-07-29T05:11:19;16.10;;;9.35;;
54555;SDS011;57291;37.520;15.106;2022-07-29T05:13:52;15.98;;;9.73;;
54555;SDS011;57291;37.520;15.106;2022-07-29T05:16:19;15.02;;;9.13;;
54555;SDS011;57291;37.520;15.106;2022-07-29T05:18:48;14.05;;;9.85;;
54555;SDS011;57291;37.520;15.106;2022-07-29T05:21:15;16.48;;;8.52;;
54555;SDS011;57291;37.520;15.106;2022-07-29T05:23:42;16.42;;;9.70;;
54555;SDS011;57291;37.520;15.106;2022-07-29T05:26:09;18.88;;;10.13;;
54555;SDS011;57291;37.520;15.106;2022-07-29T05:28:37;16.77;;;10.75;;
54555;SDS011;57291;37.520;15.106;2022-07-29T05:31:04;17.73;;;11.25;;
54555;SDS011;57291;37.520;15.106;2022-07-29T05:33:31;22.88;;;11.80;;
54555;SDS011;57291;37.520;15.106;2022-07-29T05:36:01;20.73;;;10.73;;
54555;SDS011;57291;37.520;15.106;2022-07-29T05:38:34;17.40;;;10.85;;
54555;SDS011;57291;37.520;15.106;2022-07-29T05:41:03;18.10;;;10.10;;
54555;SDS011;57291;37.520;15.106;2022-07-29T05:43:30;17.15;;;10.30;;
54555;SDS011;57291;37.520;15.106;2022-07-29T05:45:58;14.13;;;9.52;;
54555;SDS011;57291;37.520;15.106;2022-07-29T05:48:26;17.52;;;8.80;;
54555;SDS011;57291;37.520;15.106;2022-07-29T05:50:53;13.18;;;7.45;;
54555;SDS011;57291;37.520;15.106;2022-07-29T05:53:21;16.40;;;8.93;;
54555;SDS011;57291;37.520;15.106;2022-07-29T05:55:49;14.90;;;8.63;;
54555;SDS011;57291;37.520;15.106;2022-07-29T06:00:47;14.90;;;9.02;;
54555;SDS011;57291;37.520;15.106;2022-07-29T06:03:14;13.27;;;7.90;;
54555;SDS011;57291;37.520;15.106;2022-07-29T06:05:42;17.30;;;8.90;;
54555;SDS011;57291;37.520;15.106;2022-07-29T06:08:09;15.20;;;8.27;;
54555;SDS011;57291;37.520;15.106;2022-07-29T06:10:37;15.27;;;7.97;;
54555;SDS011;57291;37.520;15.106;2022-07-29T06:13:04;16.20;;;7.88;;
54555;SDS011;57291;37.520;15.106;2022-07-29T06:15:32;16.88;;;8.52;;
54555;SDS011;57291;37.520;15.106;2022-07-29T06:18:00;12.10;;;7.47;;
54555;SDS011;57291;37.520;15.106;2022-07-29T06:20:28;15.90;;;8.52;;
54555;SDS011;57291;37.520;15.106;2022-07-29T06:22:59;16.02;;;8.93;;
54555;SDS011;57291;37.520;15.106;2022-07-29T06:25:27;16.33;;;8.02;;
54555;SDS011;57291;37.520;15.106;2022-07-29T06:27:59;14.25;;;6.95;;
54555;SDS011;57291;37.520;15.106;2022-07-29T06:30:26;13.70;;;6.75;;
54555;SDS011;57291;37.520;15.106;2022-07-29T06:32:55;13.98;;;6.93;;
54555;SDS011;57291;37.520;15.106;2022-07-29T06:35:22;15.02;;;7.00;;
54555;SDS011;57291;37.520;15.106;2022-07-29T06:38:07;15.27;;;7.03;;
54555;SDS011;57291;37.520;15.106;2022-07-29T06:40:55;11.60;;;7.70;;
54555;SDS011;57291;37.520;15.106;2022-07-29T06:43:33;14.48;;;7.70;;
54555;SDS011;57291;37.520;15.106;2022-07-29T06:46:18;15.18;;;7.10;;
54555;SDS011;57291;37.520;15.106;2022-07-29T06:48:46;15.73;;;7.70;;
54555;SDS011;57291;37.520;15.106;2022-07-29T06:51:14;17.17;;;7.57;;
54555;SDS011;57291;37.520;15.106;2022-07-29T06:53:49;14.75;;;7.47;;
54555;SDS011;57291;37.520;15.106;2022-07-29T06:56:32;17.45;;;8.30;;
54555;SDS011;57291;37.520;15.106;2022-07-29T06:59:08;11.02;;;7.15;;
54555;SDS011;57291;37.520;15.106;2022-07-29T07:01:37;13.43;;;8.25;;
54555;SDS011;57291;37.520;15.106;2022-07-29T07:04:06;14.00;;;7.07;;
54555;SDS011;57291;37.520;15.106;2022-07-29T07:06:37;11.00;;;7.32;;
54555;SDS011;57291;37.520;15.106;2022-07-29T07:09:04;14.15;;;7.43;;
54555;SDS011;57291;37.520;15.106;2022-07-29T07:11:32;13.82;;;7.40;;
54555;SDS011;57291;37.520;15.106;2022-07-29T07:14:01;10.95;;;6.65;;
54555;SDS011;57291;37.520;15.106;2022-07-29T07:16:30;13.98;;;6.53;;
54555;SDS011;57291;37.520;15.106;2022-07-29T07:18:58;12.07;;;6.53;;
54555;SDS011;57291;37.520;15.106;2022-07-29T07:21:26;13.95;;;6.28;;
54555;SDS011;57291;37.520;15.106;2022-07-29T07:23:56;14.95;;;6.43;;
54555;SDS011;57291;37.520;15.106;2022-07-29T07:26:23;10.63;;;5.63;;
54555;SDS011;57291;37.520;15.106;2022-07-29T07:28:50;9.95;;;5.85;;
54555;SDS011;57291;37.520;15.106;2022-07-29T07:31:17;12.85;;;5.68;;
54555;SDS011;57291;37.520;15.106;2022-07-29T07:33:45;11.63;;;5.40;;
54555;SDS011;57291;37.520;15.106;2022-07-29T07:36:12;11.98;;;5.68;;
54555;SDS011;57291;37.520;15.106;2022-07-29T07:38:39;12.80;;;5.78;;
54555;SDS011;57291;37.520;15.106;2022-07-29T07:41:06;11.15;;;5.80;;
54555;SDS011;57291;37.520;15.106;2022-07-29T07:43:34;9.43;;;5.43;;
54555;SDS011;57291;37.520;15.106;2022-07-29T07:46:02;10.20;;;5.63;;
54555;SDS011;57291;37.520;15.106;2022-07-29T07:48:29;10.07;;;5.90;;
54555;SDS011;57291;37.520;15.106;2022-07-29T07:50:57;8.88;;;5.90;;
54555;SDS011;57291;37.520;15.106;2022-07-29T07:53:24;13.10;;;5.95;;
54555;SDS011;57291;37.520;15.106;2022-07-29T07:55:51;7.85;;;5.10;;
54555;SDS011;57291;37.520;15.106;2022-07-29T07:58:36;10.48;;;5.80;;
54555;SDS011;57291;37.520;15.106;2022-07-29T08:01:04;12.30;;;6.32;;
54555;SDS011;57291;37.520;15.106;2022-07-29T08:03:32;9.85;;;6.30;;
54555;SDS011;57291;37.520;15.106;2022-07-29T08:05:59;9.73;;;6.00;;
54555;SDS011;57291;37.520;15.106;2022-07-29T08:08:27;8.88;;;5.70;;
54555;SDS011;57291;37.520;15.106;2022-07-29T08:10:54;11.07;;;6.40;;
54555;SDS011;57291;37.520;15.106;2022-07-29T08:13:31;12.73;;;5.75;;
54555;SDS011;57291;37.520;15.106;2022-07-29T08:15:58;8.73;;;5.53;;
54555;SDS011;57291;37.520;15.106;2022-07-29T08:18:29;9.63;;;5.57;;
54555;SDS011;57291;37.520;15.106;2022-07-29T08:20:57;9.30;;;5.30;;
54555;SDS011;57291;37.520;15.106;2022-07-29T08:23:26;9.50;;;5.20;;
54555;SDS011;57291;37.520;15.106;2022-07-29T08:26:23;9.40;;;5.70;;
54555;SDS011;57291;37.520;15.106;2022-07-29T08:28:50;8.85;;;5.20;;
54555;SDS011;57291;37.520;15.106;2022-07-29T08:31:17;8.43;;;5.32;;
54555;SDS011;57291;37.520;15.106;2022-07-29T08:33:45;10.85;;;5.30;;
54555;SDS011;57291;37.520;15.106;2022-07-29T08:36:12;7.13;;;5.03;;
54555;SDS011;57291;37.520;15.106;2022-07-29T08:38:39;9.75;;;5.43;;
54555;SDS011;57291;37.520;15.106;2022-07-29T08:41:07;9.57;;;5.25;;
54555;SDS011;57291;37.520;15.106;2022-07-29T08:43:34;10.65;;;5.25;;
54555;SDS011;57291;37.520;15.106;2022-07-29T08:46:04;7.00;;;4.85;;
54555;SDS011;57291;37.520;15.106;2022-07-29T08:48:31;11.20;;;5.13;;
54555;SDS011;57291;37.520;15.106;2022-07-29T08:50:59;9.50;;;5.00;;
54555;SDS011;57291;37.520;15.106;2022-07-29T08:53:29;12.50;;;4.90;;
54555;SDS011;57291;37.520;15.106;2022-07-29T08:55:58;8.07;;;4.78;;
54555;SDS011;57291;37.520;15.106;2022-07-29T08:58:27;7.38;;;4.45;;
54555;SDS011;57291;37.520;15.106;2022-07-29T09:01:02;9.88;;;5.40;;
54555;SDS011;57291;37.520;15.106;2022-07-29T09:03:34;9.48;;;4.60;;
54555;SDS011;57291;37.520;15.106;2022-07-29T09:06:03;8.48;;;4.82;;
54555;SDS011;57291;37.520;15.106;2022-07-29T09:08:32;7.00;;;4.57;;
54555;SDS011;57291;37.520;15.106;2022-07-29T09:11:02;16.10;;;5.15;;
54555;SDS011;57291;37.520;15.106;2022-07-29T09:13:31;9.63;;;5.33;;
54555;SDS011;57291;37.520;15.106;2022-07-29T09:15:58;10.18;;;5.13;;
54555;SDS011;57291;37.520;15.106;2022-07-29T09:18:39;8.80;;;5.22;;
54555;SDS011;57291;37.520;15.106;2022-07-29T09:21:12;9.15;;;5.40;;
54555;SDS011;57291;37.520;15.106;2022-07-29T09:24:06;10.18;;;4.95;;
54555;SDS011;57291;37.520;15.106;2022-07-29T09:26:36;13.15;;;5.35;;
54555;SDS011;57291;37.520;15.106;2022-07-29T09:29:10;9.43;;;6.05;;
54555;SDS011;57291;37.520;15.106;2022-07-29T09:31:38;9.37;;;6.37;;
54555;SDS011;57291;37.520;15.106;2022-07-29T09:34:09;9.80;;;5.70;;
54555;SDS011;57291;37.520;15.106;2022-07-29T09:36:39;9.20;;;6.72;;
54555;SDS011;57291;37.520;15.106;2022-07-29T09:39:07;10.40;;;6.30;;
54555;SDS011;57291;37.520;15.106;2022-07-29T09:41:51;13.45;;;6.05;;
54555;SDS011;57291;37.520;15.106;2022-07-29T09:44:23;8.45;;;6.43;;
54555;SDS011;57291;37.520;15.106;2022-07-29T09:47:09;9.65;;;6.25;;
54555;SDS011;57291;37.520;15.106;2022-07-29T09:52:50;11.00;;;6.35;;
54555;SDS011;57291;37.520;15.106;2022-07-29T09:55:19;13.75;;;6.90;;
54555;SDS011;57291;37.520;15.106;2022-07-29T09:57:46;11.43;;;6.65;;
54555;SDS011;57291;37.520;15.106;2022-07-29T10:00:17;12.45;;;6.72;;
54555;SDS011;57291;37.520;15.106;2022-07-29T10:07:52;8.88;;;5.72;;
54555;SDS011;57291;37.520;15.106;2022-07-29T10:10:33;11.97;;;6.80;;
54555;SDS011;57291;37.520;15.106;2022-07-29T10:13:08;9.65;;;5.28;;
54555;SDS011;57291;37.520;15.106;2022-07-29T10:15:42;8.95;;;6.10;;
54555;SDS011;57291;37.520;15.106;2022-07-29T10:18:12;13.00;;;7.22;;
54555;SDS011;57291;37.520;15.106;2022-07-29T10:20:40;11.13;;;6.28;;
54555;SDS011;57291;37.520;15.106;2022-07-29T10:23:08;9.10;;;6.15;;
54555;SDS011;57291;37.520;15.106;2022-07-29T10:25:36;11.77;;;6.00;;
54555;SDS011;57291;37.520;15.106;2022-07-29T10:28:04;9.60;;;5.35;;
54555;SDS011;57291;37.520;15.106;2022-07-29T10:30:32;10.77;;;6.30;;
54555;SDS011;57291;37.520;15.106;2022-07-29T10:36:02;11.18;;;5.47;;
54555;SDS011;57291;37.520;15.106;2022-07-29T10:44:18;12.35;;;6.18;;
54555;SDS011;57291;37.520;15.106;2022-07-29T10:46:49;12.65;;;6.32;;
54555;SDS011;57291;37.520;15.106;2022-07-29T10:49:18;11.48;;;6.35;;
54555;SDS011;57291;37.520;15.106;2022-07-29T10:51:54;9.02;;;6.20;;
54555;SDS011;57291;37.520;15.106;2022-07-29T10:57:15;11.25;;;6.43;;
54555;SDS011;57291;37.520;15.106;2022-07-29T11:02:43;10.10;;;6.80;;
54555;SDS011;57291;37.520;15.106;2022-07-29T11:05:15;11.27;;;7.22;;
54555;SDS011;57291;37.520;15.106;2022-07-29T11:10:53;11.63;;;7.40;;
54555;SDS011;57291;37.520;15.106;2022-07-29T11:16:12;11.05;;;7.28;;
54555;SDS011;57291;37.520;15.106;2022-07-29T11:21:41;12.82;;;8.75;;
54555;SDS011;57291;37.520;15.106;2022-07-29T11:24:30;11.77;;;8.20;;
54555;SDS011;57291;37.520;15.106;2022-07-29T11:27:07;14.52;;;7.88;;
54555;SDS011;57291;37.520;15.106;2022-07-29T11:29:47;13.50;;;8.85;;
54555;SDS011;57291;37.520;15.106;2022-07-29T11:32:17;12.63;;;7.88;;
54555;SDS011;57291;37.520;15.106;2022-07-29T11:34:48;10.23;;;7.63;;
54555;SDS011;57291;37.520;15.106;2022-07-29T11:37:46;10.30;;;6.85;;
54555;SDS011;57291;37.520;15.106;2022-07-29T11:43:08;10.18;;;7.40;;
54555;SDS011;57291;37.520;15.106;2022-07-29T11:45:46;9.90;;;7.13;;
54555;SDS011;57291;37.520;15.106;2022-07-29T11:48:17;11.68;;;6.95;;
54555;SDS011;57291;37.520;15.106;2022-07-29T11:50:57;9.70;;;6.40;;
54555;SDS011;57291;37.520;15.106;2022-07-29T11:53:25;10.00;;;6.57;;
54555;SDS011;57291;37.520;15.106;2022-07-29T11:55:57;10.18;;;6.97;;
54555;SDS011;57291;37.520;15.106;2022-07-29T11:58:26;12.43;;;7.25;;
54555;SDS011;57291;37.520;15.106;2022-07-29T12:00:55;10.77;;;6.75;;
54555;SDS011;57291;37.520;15.106;2022-07-29T12:03:24;9.50;;;6.95;;
54555;SDS011;57291;37.520;15.106;2022-07-29T12:06:11;13.63;;;7.32;;
54555;SDS011;57291;37.520;15.106;2022-07-29T12:08:44;13.63;;;7.80;;
54555;SDS011;57291;37.520;15.106;2022-07-29T12:11:19;15.20;;;8.63;;
54555;SDS011;57291;37.520;15.106;2022-07-29T12:13:50;12.93;;;8.13;;
54555;SDS011;57291;37.520;15.106;2022-07-29T12:16:18;12.93;;;8.90;;
54555;SDS011;57291;37.520;15.106;2022-07-29T12:18:56;14.93;;;7.88;;
54555;SDS011;57291;37.520;15.106;2022-07-29T12:21:25;12.40;;;7.95;;
54555;SDS011;57291;37.520;15.106;2022-07-29T12:23:55;11.93;;;8.00;;
54555;SDS011;57291;37.520;15.106;2022-07-29T12:26:34;11.95;;;7.70;;
54555;SDS011;57291;37.520;15.106;2022-07-29T12:29:01;14.50;;;7.90;;
54555;SDS011;57291;37.520;15.106;2022-07-29T12:31:37;11.80;;;8.85;;
54555;SDS011;57291;37.520;15.106;2022-07-29T12:36:40;13.77;;;8.65;;
54555;SDS011;57291;37.520;15.106;2022-07-29T12:39:10;10.07;;;8.52;;
54555;SDS011;57291;37.520;15.106;2022-07-29T12:41:38;14.15;;;8.82;;
54555;SDS011;57291;37.520;15.106;2022-07-29T12:44:05;13.13;;;8.63;;
54555;SDS011;57291;37.520;15.106;2022-07-29T12:46:33;10.02;;;8.32;;
54555;SDS011;57291;37.520;15.106;2022-07-29T12:49:00;16.85;;;8.85;;
54555;SDS011;57291;37.520;15.106;2022-07-29T12:51:36;11.40;;;7.57;;
54555;SDS011;57291;37.520;15.106;2022-07-29T12:54:12;12.98;;;8.20;;
54555;SDS011;57291;37.520;15.106;2022-07-29T12:56:41;14.10;;;8.82;;
54555;SDS011;57291;37.520;15.106;2022-07-29T12:59:11;12.27;;;9.13;;
54555;SDS011;57291;37.520;15.106;2022-07-29T13:01:44;15.00;;;8.77;;
54555;SDS011;57291;37.520;15.106;2022-07-29T13:04:30;14.05;;;8.32;;
54555;SDS011;57291;37.520;15.106;2022-07-29T13:06:59;12.25;;;9.60;;
54555;SDS011;57291;37.520;15.106;2022-07-29T13:09:37;13.23;;;8.95;;
54555;SDS011;57291;37.520;15.106;2022-07-29T13:12:15;15.15;;;9.25;;
54555;SDS011;57291;37.520;15.106;2022-07-29T13:14:46;13.40;;;8.52;;
54555;SDS011;57291;37.520;15.106;2022-07-29T13:17:17;12.25;;;8.43;;
54555;SDS011;57291;37.520;15.106;2022-07-29T13:20:05;14.95;;;9.70;;
54555;SDS011;57291;37.520;15.106;2022-07-29T13:22:35;14.77;;;8.70;;
54555;SDS011;57291;37.520;15.106;2022-07-29T13:25:03;15.07;;;8.60;;
54555;SDS011;57291;37.520;15.106;2022-07-29T13:27:31;11.55;;;7.88;;
54555;SDS011;57291;37.520;15.106;2022-07-29T13:30:04;12.65;;;8.13;;
54555;SDS011;57291;37.520;15.106;2022-07-29T13:32:35;12.93;;;7.65;;
54555;SDS011;57291;37.520;15.106;2022-07-29T13:35:06;11.32;;;7.53;;
54555;SDS011;57291;37.520;15.106;2022-07-29T13:37:35;16.05;;;7.35;;
54555;SDS011;57291;37.520;15.106;2022-07-29T13:40:08;11.23;;;7.40;;
54555;SDS011;57291;37.520;15.106;2022-07-29T13:42:37;10.33;;;7.30;;
54555;SDS011;57291;37.520;15.106;2022-07-29T13:45:04;11.38;;;6.43;;
54555;SDS011;57291;37.520;15.106;2022-07-29T13:47:33;12.55;;;6.50;;
54555;SDS011;57291;37.520;15.106;2022-07-29T13:50:00;10.98;;;6.60;;
54555;SDS011;57291;37.520;15.106;2022-07-29T13:52:30;10.20;;;6.28;;
54555;SDS011;57291;37.520;15.106;2022-07-29T13:54:58;12.25;;;6.53;;
54555;SDS011;57291;37.520;15.106;2022-07-29T13:57:25;9.85;;;6.13;;
54555;SDS011;57291;37.520;15.106;2022-07-29T13:59:53;10.68;;;6.50;;
54555;SDS011;57291;37.520;15.106;2022-07-29T14:02:20;12.60;;;6.60;;
54555;SDS011;57291;37.520;15.106;2022-07-29T14:04:52;9.75;;;5.80;;
54555;SDS011;57291;37.520;15.106;2022-07-29T14:07:20;12.32;;;6.05;;
54555;SDS011;57291;37.520;15.106;2022-07-29T14:09:48;9.50;;;5.93;;
54555;SDS011;57291;37.520;15.106;2022-07-29T14:12:16;13.13;;;6.32;;
54555;SDS011;57291;37.520;15.106;2022-07-29T14:14:44;14.68;;;6.75;;
54555;SDS011;57291;37.520;15.106;2022-07-29T14:17:12;10.18;;;6.20;;
54555;SDS011;57291;37.520;15.106;2022-07-29T14:19:41;13.07;;;6.82;;
54555;SDS011;57291;37.520;15.106;2022-07-29T14:22:09;9.45;;;6.32;;
54555;SDS011;57291;37.520;15.106;2022-07-29T14:24:37;11.75;;;7.25;;
54555;SDS011;57291;37.520;15.106;2022-07-29T14:27:05;10.73;;;7.13;;
54555;SDS011;57291;37.520;15.106;2022-07-29T14:29:33;11.85;;;6.38;;
54555;SDS011;57291;37.520;15.106;2022-07-29T14:32:05;9.63;;;5.85;;
54555;SDS011;57291;37.520;15.106;2022-07-29T14:34:43;10.80;;;6.43;;
54555;SDS011;57291;37.520;15.106;2022-07-29T14:37:11;11.85;;;6.78;;
54555;SDS011;57291;37.520;15.106;2022-07-29T14:39:41;14.23;;;6.90;;
54555;SDS011;57291;37.520;15.106;2022-07-29T14:42:09;14.40;;;7.10;;
54555;SDS011;57291;37.520;15.106;2022-07-29T14:44:38;10.90;;;6.82;;
54555;SDS011;57291;37.520;15.106;2022-07-29T14:47:06;11.60;;;6.55;;
54555;SDS011;57291;37.520;15.106;2022-07-29T14:49:34;8.57;;;6.20;;
54555;SDS011;57291;37.520;15.106;2022-07-29T14:52:03;10.52;;;6.40;;
54555;SDS011;57291;37.520;15.106;2022-07-29T14:54:30;9.30;;;6.18;;
54555;SDS011;57291;37.520;15.106;2022-07-29T14:56:57;12.18;;;6.75;;
54555;SDS011;57291;37.520;15.106;2022-07-29T14:59:25;11.20;;;6.78;;
54555;SDS011;57291;37.520;15.106;2022-07-29T15:01:53;9.30;;;6.38;;
54555;SDS011;57291;37.520;15.106;2022-07-29T15:04:20;12.13;;;6.72;;
54555;SDS011;57291;37.520;15.106;2022-07-29T15:06:47;8.73;;;6.30;;
54555;SDS011;57291;37.520;15.106;2022-07-29T15:09:17;14.63;;;6.68;;
54555;SDS011;57291;37.520;15.106;2022-07-29T15:11:44;12.25;;;6.18;;
54555;SDS011;57291;37.520;15.106;2022-07-29T15:14:11;10.23;;;6.63;;
54555;SDS011;57291;37.520;15.106;2022-07-29T15:16:39;10.13;;;6.72;;
54555;SDS011;57291;37.520;15.106;2022-07-29T15:19:13;10.07;;;6.50;;
54555;SDS011;57291;37.520;15.106;2022-07-29T15:21:41;11.45;;;6.72;;
54555;SDS011;57291;37.520;15.106;2022-07-29T15:24:15;10.85;;;6.55;;
54555;SDS011;57291;37.520;15.106;2022-07-29T15:26:43;10.88;;;6.95;;
54555;SDS011;57291;37.520;15.106;2022-07-29T15:29:10;9.88;;;6.65;;
54555;SDS011;57291;37.520;15.106;2022-07-29T15:31:37;12.10;;;6.95;;
54555;SDS011;57291;37.520;15.106;2022-07-29T15:34:06;14.95;;;6.72;;
54555;SDS011;57291;37.520;15.106;2022-07-29T15:36:33;9.15;;;6.53;;
54555;SDS011;57291;37.520;15.106;2022-07-29T15:39:18;10.20;;;6.65;;